sensor_id;sensor_type;location;lat;lon;timestamp;pressure;altitude;pressure_sealevel;temperature;humidity
59435;BME280;45241;49.768;8.636;2023-05-16T00:00:06;99977.88;;;15.01;100.00
59435;BME280;45241;49.768;8.636;2023-05-16T00:02:34;99974.94;;;15.02;100.00
59435;BME280;45241;49.768;8.636;2023-05-16T00:05:01;99972.09;;;14.97;100.00
59435;BME280;45241;49.768;8.636;2023-05-16T00:07:26;99961.97;;;15.11;100.00
59435;BME280;45241;49.768;8.636;2023-05-16T00:09:51;99960.38;;;15.03;100.00
59435;BME280;45241;49.768;8.636;2023-05-16T00:12:16;99959.13;;;15.06;100.00
59435;BME280;45241;49.768;8.636;2023-05-16T00:14:43;99967.31;;;14.99;100.00
59435;BME280;45241;49.768;8.636;2023-05-16T00:17:09;99968.50;;;14.85;100.00
59435;BME280;45241;49.768;8.636;2023-05-16T00:19:36;99969.25;;;14.74;100.00
59435;BME280;45241;49.768;8.636;2023-05-16T00:22:04;99966.19;;;14.70;100.00
59435;BME280;45241;49.768;8.636;2023-05-16T00:24:29;99962.28;;;14.84;100.00
59435;BME280;45241;49.768;8.636;2023-05-16T00:26:55;99966.03;;;14.83;100.00
59435;BME280;45241;49.768;8.636;2023-05-16T00:29:20;99970.53;;;14.71;100.00
59435;BME280;45241;49.768;8.636;2023-05-16T00:31:46;99966.09;;;14.77;100.00
59435;BME280;45241;49.768;8.636;2023-05-16T00:34:11;99971.81;;;14.68;100.00
59435;BME280;45241;49.768;8.636;2023-05-16T00:36:36;99970.91;;;14.75;100.00
59435;BME280;45241;49.768;8.636;2023-05-16T00:39:02;99974.88;;;14.72;100.00
59435;BME280;45241;49.768;8.636;2023-05-16T00:41:28;99981.09;;;14.73;100.00
59435;BME280;45241;49.768;8.636;2023-05-16T00:43:53;99978.31;;;14.61;100.00
59435;BME280;45241;49.768;8.636;2023-05-16T00:46:19;99981.78;;;14.68;100.00
59435;BME280;45241;49.768;8.636;2023-05-16T00:48:44;99982.00;;;14.66;100.00
59435;BME280;45241;49.768;8.636;2023-05-16T00:51:10;99973.59;;;14.75;100.00
59435;BME280;45241;49.768;8.636;2023-05-16T00:53:35;99969.03;;;14.75;100.00
59435;BME280;45241;49.768;8.636;2023-05-16T00:56:01;99979.59;;;14.77;100.00
59435;BME280;45241;49.768;8.636;2023-05-16T00:58:29;99972.25;;;14.84;100.00
59435;BME280;45241;49.768;8.636;2023-05-16T01:00:56;99978.78;;;14.94;100.00
59435;BME280;45241;49.768;8.636;2023-05-16T01:03:22;99976.00;;;14.83;100.00
59435;BME280;45241;49.768;8.636;2023-05-16T01:05:48;99979.06;;;14.86;100.00
59435;BME280;45241;49.768;8.636;2023-05-16T01:08:14;99982.00;;;14.85;100.00
59435;BME280;45241;49.768;8.636;2023-05-16T01:10:52;99978.72;;;14.83;100.00
59435;BME280;45241;49.768;8.636;2023-05-16T01:13:37;99982.22;;;14.83;100.00
59435;BME280;45241;49.768;8.636;2023-05-16T01:16:21;99979.16;;;14.80;100.00
59435;BME280;45241;49.768;8.636;2023-05-16T01:21:41;99977.53;;;14.79;100.00
59435;BME280;45241;49.768;8.636;2023-05-16T01:24:13;99980.06;;;14.92;100.00
59435;BME280;45241;49.768;8.636;2023-05-16T01:26:45;99978.41;;;14.91;100.00
59435;BME280;45241;49.768;8.636;2023-05-16T01:29:11;99979.44;;;14.90;100.00
59435;BME280;45241;49.768;8.636;2023-05-16T01:31:36;99975.03;;;14.95;100.00
59435;BME280;45241;49.768;8.636;2023-05-16T01:34:02;99980.19;;;14.97;100.00
59435;BME280;45241;49.768;8.636;2023-05-16T01:41:54;99991.09;;;14.90;100.00
59435;BME280;45241;49.768;8.636;2023-05-16T01:46:58;99987.13;;;14.93;100.00
59435;BME280;45241;49.768;8.636;2023-05-16T01:52:17;99985.22;;;14.93;100.00
59435;BME280;45241;49.768;8.636;2023-05-16T01:54:44;99985.00;;;14.95;100.00
59435;BME280;45241;49.768;8.636;2023-05-16T01:57:12;99982.53;;;14.93;100.00
59435;BME280;45241;49.768;8.636;2023-05-16T01:59:38;99986.56;;;15.03;100.00
59435;BME280;45241;49.768;8.636;2023-05-16T02:02:04;99996.16;;;14.98;100.00
59435;BME280;45241;49.768;8.636;2023-05-16T02:04:30;99989.22;;;14.91;100.00
59435;BME280;45241;49.768;8.636;2023-05-16T02:06:55;99993.25;;;15.00;100.00
59435;BME280;45241;49.768;8.636;2023-05-16T02:09:21;99989.50;;;15.01;100.00
59435;BME280;45241;49.768;8.636;2023-05-16T02:11:46;99986.13;;;15.06;100.00
59435;BME280;45241;49.768;8.636;2023-05-16T02:14:12;99987.25;;;14.98;100.00
59435;BME280;45241;49.768;8.636;2023-05-16T02:16:38;99991.13;;;15.02;100.00
59435;BME280;45241;49.768;8.636;2023-05-16T02:19:03;99987.47;;;14.96;100.00
59435;BME280;45241;49.768;8.636;2023-05-16T02:21:29;99987.72;;;14.95;100.00
59435;BME280;45241;49.768;8.636;2023-05-16T02:23:55;99994.00;;;15.07;100.00
59435;BME280;45241;49.768;8.636;2023-05-16T02:26:20;99997.16;;;15.04;100.00
59435;BME280;45241;49.768;8.636;2023-05-16T02:28:46;99988.53;;;14.95;100.00
59435;BME280;45241;49.768;8.636;2023-05-16T02:31:24;99989.59;;;14.94;100.00
59435;BME280;45241;49.768;8.636;2023-05-16T02:33:50;99989.81;;;14.93;100.00
59435;BME280;45241;49.768;8.636;2023-05-16T02:36:15;99991.97;;;15.03;100.00
59435;BME280;45241;49.768;8.636;2023-05-16T02:38:40;99991.91;;;14.91;100.00
59435;BME280;45241;49.768;8.636;2023-05-16T02:41:06;99987.94;;;14.93;100.00
59435;BME280;45241;49.768;8.636;2023-05-16T02:43:31;99993.56;;;14.92;100.00
59435;BME280;45241;49.768;8.636;2023-05-16T02:45:56;99997.16;;;15.04;100.00
59435;BME280;45241;49.768;8.636;2023-05-16T02:48:22;99994.88;;;15.01;100.00
59435;BME280;45241;49.768;8.636;2023-05-16T02:50:47;99988.16;;;14.92;100.00
59435;BME280;45241;49.768;8.636;2023-05-16T02:53:12;99993.63;;;15.04;100.00
59435;BME280;45241;49.768;8.636;2023-05-16T02:55:37;99989.59;;;14.94;100.00
59435;BME280;45241;49.768;8.636;2023-05-16T02:58:03;99991.50;;;14.87;100.00
59435;BME280;45241;49.768;8.636;2023-05-16T03:00:29;99996.53;;;14.84;100.00
59435;BME280;45241;49.768;8.636;2023-05-16T03:02:54;100006.66;;;14.70;100.00
59435;BME280;45241;49.768;8.636;2023-05-16T03:05:19;100004.88;;;14.82;100.00
59435;BME280;45241;49.768;8.636;2023-05-16T03:07:45;100008.84;;;14.80;100.00
59435;BME280;45241;49.768;8.636;2023-05-16T03:10:10;100004.06;;;14.82;100.00
59435;BME280;45241;49.768;8.636;2023-05-16T03:12:36;100005.09;;;14.81;100.00
59435;BME280;45241;49.768;8.636;2023-05-16T03:15:01;100006.16;;;14.80;100.00
59435;BME280;45241;49.768;8.636;2023-05-16T03:17:28;100005.56;;;14.78;100.00
59435;BME280;45241;49.768;8.636;2023-05-16T03:19:53;100006.88;;;14.68;100.00
59435;BME280;45241;49.768;8.636;2023-05-16T03:22:18;100012.44;;;14.74;100.00
59435;BME280;45241;49.768;8.636;2023-05-16T03:24:44;100018.41;;;14.57;100.00
59435;BME280;45241;49.768;8.636;2023-05-16T03:27:09;100013.69;;;14.53;100.00
59435;BME280;45241;49.768;8.636;2023-05-16T03:29:35;100015.34;;;14.54;100.00
59435;BME280;45241;49.768;8.636;2023-05-16T03:32:00;100017.97;;;14.60;100.00
59435;BME280;45241;49.768;8.636;2023-05-16T03:34:26;100022.31;;;14.61;100.00
59435;BME280;45241;49.768;8.636;2023-05-16T03:36:52;100016.81;;;14.50;100.00
59435;BME280;45241;49.768;8.636;2023-05-16T03:39:17;100022.31;;;14.61;100.00
59435;BME280;45241;49.768;8.636;2023-05-16T03:41:43;100020.50;;;14.55;100.00
59435;BME280;45241;49.768;8.636;2023-05-16T03:44:08;100024.06;;;14.49;100.00
59435;BME280;45241;49.768;8.636;2023-05-16T03:46:34;100023.34;;;14.42;100.00
59435;BME280;45241;49.768;8.636;2023-05-16T03:49:00;100024.81;;;14.38;100.00
59435;BME280;45241;49.768;8.636;2023-05-16T03:51:25;100020.75;;;14.29;100.00
59435;BME280;45241;49.768;8.636;2023-05-16T03:53:50;100022.09;;;14.13;100.00
59435;BME280;45241;49.768;8.636;2023-05-16T03:56:16;100028.31;;;14.14;100.00
59435;BME280;45241;49.768;8.636;2023-05-16T03:58:41;100026.44;;;14.14;100.00
59435;BME280;45241;49.768;8.636;2023-05-16T04:01:06;100033.06;;;14.12;100.00
59435;BME280;45241;49.768;8.636;2023-05-16T04:03:32;100042.06;;;14.05;100.00
59435;BME280;45241;49.768;8.636;2023-05-16T04:05:58;100033.41;;;14.22;100.00
59435;BME280;45241;49.768;8.636;2023-05-16T04:08:23;100038.34;;;14.31;100.00
59435;BME280;45241;49.768;8.636;2023-05-16T04:10:49;100037.09;;;14.34;100.00
59435;BME280;45241;49.768;8.636;2023-05-16T04:13:15;100042.75;;;14.26;100.00
59435;BME280;45241;49.768;8.636;2023-05-16T04:15:40;100032.38;;;14.29;100.00
59435;BME280;45241;49.768;8.636;2023-05-16T04:18:06;100038.16;;;14.26;100.00
59435;BME280;45241;49.768;8.636;2023-05-16T04:20:31;100041.44;;;14.35;100.00
59435;BME280;45241;49.768;8.636;2023-05-16T04:22:56;100044.81;;;14.24;100.00
59435;BME280;45241;49.768;8.636;2023-05-16T04:25:21;100049.44;;;14.17;100.00
59435;BME280;45241;49.768;8.636;2023-05-16T04:27:47;100049.97;;;14.32;100.00
59435;BME280;45241;49.768;8.636;2023-05-16T04:30:12;100050.75;;;14.39;100.00
59435;BME280;45241;49.768;8.636;2023-05-16T04:32:38;100056.44;;;14.49;100.00
59435;BME280;45241;49.768;8.636;2023-05-16T04:35:04;100047.75;;;14.47;100.00
59435;BME280;45241;49.768;8.636;2023-05-16T04:37:31;100049.16;;;14.25;100.00
59435;BME280;45241;49.768;8.636;2023-05-16T04:39:56;100052.44;;;14.33;100.00
59435;BME280;45241;49.768;8.636;2023-05-16T04:42:21;100049.38;;;14.30;100.00
59435;BME280;45241;49.768;8.636;2023-05-16T04:44:48;100054.28;;;14.40;100.00
59435;BME280;45241;49.768;8.636;2023-05-16T04:47:14;100057.88;;;14.27;100.00
59435;BME280;45241;49.768;8.636;2023-05-16T04:49:39;100059.13;;;14.49;100.00
59435;BME280;45241;49.768;8.636;2023-05-16T04:52:06;100065.41;;;14.12;100.00
59435;BME280;45241;49.768;8.636;2023-05-16T04:54:32;100070.25;;;14.34;100.00
59435;BME280;45241;49.768;8.636;2023-05-16T04:56:58;100078.53;;;14.40;100.00
59435;BME280;45241;49.768;8.636;2023-05-16T04:59:23;100070.97;;;14.48;100.00
59435;BME280;45241;49.768;8.636;2023-05-16T05:01:48;100072.63;;;14.49;100.00
59435;BME280;45241;49.768;8.636;2023-05-16T05:04:14;100079.91;;;14.49;100.00
59435;BME280;45241;49.768;8.636;2023-05-16T05:06:39;100079.84;;;14.55;100.00
59435;BME280;45241;49.768;8.636;2023-05-16T05:09:05;100081.06;;;14.59;100.00
59435;BME280;45241;49.768;8.636;2023-05-16T05:11:31;100081.28;;;14.58;100.00
59435;BME280;45241;49.768;8.636;2023-05-16T05:13:56;100083.63;;;14.48;100.00
59435;BME280;45241;49.768;8.636;2023-05-16T05:16:21;100093.22;;;14.68;100.00
59435;BME280;45241;49.768;8.636;2023-05-16T05:18:47;100095.38;;;14.60;100.00
59435;BME280;45241;49.768;8.636;2023-05-16T05:21:12;100097.63;;;14.63;100.00
59435;BME280;45241;49.768;8.636;2023-05-16T05:23:38;100091.69;;;14.54;100.00
59435;BME280;45241;49.768;8.636;2023-05-16T05:26:04;100095.44;;;14.53;100.00
59435;BME280;45241;49.768;8.636;2023-05-16T05:28:29;100092.53;;;14.55;100.00
59435;BME280;45241;49.768;8.636;2023-05-16T05:30:54;100092.22;;;14.63;100.00
59435;BME280;45241;49.768;8.636;2023-05-16T05:33:25;100090.28;;;14.95;100.00
59435;BME280;45241;49.768;8.636;2023-05-16T05:35:51;100092.75;;;15.15;100.00
59435;BME280;45241;49.768;8.636;2023-05-16T05:38:18;100098.53;;;15.18;100.00
59435;BME280;45241;49.768;8.636;2023-05-16T05:40:43;100094.03;;;15.12;100.00
59435;BME280;45241;49.768;8.636;2023-05-16T05:43:08;100088.47;;;15.25;100.00
59435;BME280;45241;49.768;8.636;2023-05-16T05:45:34;100091.03;;;15.20;100.00
59435;BME280;45241;49.768;8.636;2023-05-16T05:47:59;100094.66;;;15.33;100.00
59435;BME280;45241;49.768;8.636;2023-05-16T05:50:25;100089.69;;;15.30;100.00
59435;BME280;45241;49.768;8.636;2023-05-16T05:52:50;100087.66;;;15.43;100.00
59435;BME280;45241;49.768;8.636;2023-05-16T05:55:16;100095.53;;;15.26;100.00
59435;BME280;45241;49.768;8.636;2023-05-16T05:57:41;100101.16;;;15.25;100.00
59435;BME280;45241;49.768;8.636;2023-05-16T06:00:06;100105.03;;;15.29;100.00
59435;BME280;45241;49.768;8.636;2023-05-16T06:02:32;100105.34;;;15.03;100.00
59435;BME280;45241;49.768;8.636;2023-05-16T06:04:57;100109.03;;;15.08;100.00
59435;BME280;45241;49.768;8.636;2023-05-16T06:07:23;100116.59;;;15.00;100.00
59435;BME280;45241;49.768;8.636;2023-05-16T06:09:48;100119.69;;;15.21;100.00
59435;BME280;45241;49.768;8.636;2023-05-16T06:12:13;100117.44;;;15.18;100.00
59435;BME280;45241;49.768;8.636;2023-05-16T06:14:39;100120.38;;;15.35;100.00
59435;BME280;45241;49.768;8.636;2023-05-16T06:17:04;100120.81;;;15.32;100.00
59435;BME280;45241;49.768;8.636;2023-05-16T06:19:30;100126.44;;;15.12;100.00
59435;BME280;45241;49.768;8.636;2023-05-16T06:21:55;100130.75;;;14.95;100.00
59435;BME280;45241;49.768;8.636;2023-05-16T06:24:20;100128.38;;;15.05;100.00
59435;BME280;45241;49.768;8.636;2023-05-16T06:26:46;100129.34;;;15.11;100.00
59435;BME280;45241;49.768;8.636;2023-05-16T06:29:14;100133.88;;;15.17;100.00
59435;BME280;45241;49.768;8.636;2023-05-16T06:31:40;100128.91;;;15.14;100.00
59435;BME280;45241;49.768;8.636;2023-05-16T06:34:05;100139.19;;;15.23;100.00
59435;BME280;45241;49.768;8.636;2023-05-16T06:36:30;100142.84;;;15.29;100.00
59435;BME280;45241;49.768;8.636;2023-05-16T06:38:56;100144.19;;;14.77;100.00
59435;BME280;45241;49.768;8.636;2023-05-16T06:41:21;100147.06;;;14.82;100.00
59435;BME280;45241;49.768;8.636;2023-05-16T06:43:46;100143.81;;;14.98;100.00
59435;BME280;45241;49.768;8.636;2023-05-16T06:46:12;100144.94;;;15.09;100.00
59435;BME280;45241;49.768;8.636;2023-05-16T06:48:37;100146.22;;;15.06;100.00
59435;BME280;45241;49.768;8.636;2023-05-16T06:51:02;100145.63;;;15.04;100.00
59435;BME280;45241;49.768;8.636;2023-05-16T06:53:28;100145.03;;;15.20;100.00
59435;BME280;45241;49.768;8.636;2023-05-16T06:55:53;100154.19;;;15.19;100.00
59435;BME280;45241;49.768;8.636;2023-05-16T06:58:19;100155.25;;;15.37;100.00
59435;BME280;45241;49.768;8.636;2023-05-16T07:00:44;100161.19;;;15.02;100.00
59435;BME280;45241;49.768;8.636;2023-05-16T07:03:10;100166.81;;;15.01;100.00
59435;BME280;45241;49.768;8.636;2023-05-16T07:05:35;100172.88;;;15.21;100.00
59435;BME280;45241;49.768;8.636;2023-05-16T07:08:01;100174.78;;;15.14;100.00
59435;BME280;45241;49.768;8.636;2023-05-16T07:10:26;100182.81;;;14.52;100.00
59435;BME280;45241;49.768;8.636;2023-05-16T07:12:52;100193.09;;;14.24;100.00
59435;BME280;45241;49.768;8.636;2023-05-16T07:15:17;100194.75;;;14.25;100.00
59435;BME280;45241;49.768;8.636;2023-05-16T07:17:42;100193.47;;;14.41;100.00
59435;BME280;45241;49.768;8.636;2023-05-16T07:20:08;100201.00;;;14.25;100.00
59435;BME280;45241;49.768;8.636;2023-05-16T07:22:37;100201.41;;;14.22;100.00
59435;BME280;45241;49.768;8.636;2023-05-16T07:25:03;100207.69;;;14.09;100.00
59435;BME280;45241;49.768;8.636;2023-05-16T07:27:30;100210.38;;;14.54;100.00
59435;BME280;45241;49.768;8.636;2023-05-16T07:29:56;100222.34;;;14.20;100.00
59435;BME280;45241;49.768;8.636;2023-05-16T07:32:21;100228.63;;;14.14;100.00
59435;BME280;45241;49.768;8.636;2023-05-16T07:34:46;100233.88;;;13.96;100.00
59435;BME280;45241;49.768;8.636;2023-05-16T07:37:12;100235.44;;;13.45;100.00
59435;BME280;45241;49.768;8.636;2023-05-16T07:39:39;100240.97;;;13.84;100.00
59435;BME280;45241;49.768;8.636;2023-05-16T07:42:07;100232.56;;;13.60;100.00
59435;BME280;45241;49.768;8.636;2023-05-16T07:44:33;100236.81;;;13.81;100.00
59435;BME280;45241;49.768;8.636;2023-05-16T07:46:59;100240.66;;;13.34;100.00
59435;BME280;45241;49.768;8.636;2023-05-16T07:49:24;100238.16;;;13.52;100.00
59435;BME280;45241;49.768;8.636;2023-05-16T07:51:50;100238.72;;;13.74;100.00
59435;BME280;45241;49.768;8.636;2023-05-16T07:54:15;100244.75;;;13.56;100.00
59435;BME280;45241;49.768;8.636;2023-05-16T07:56:40;100249.31;;;13.56;100.00
59435;BME280;45241;49.768;8.636;2023-05-16T07:59:06;100251.81;;;13.57;100.00
59435;BME280;45241;49.768;8.636;2023-05-16T08:01:32;100262.69;;;13.95;100.00
59435;BME280;45241;49.768;8.636;2023-05-16T08:03:57;100263.94;;;13.99;100.00
59435;BME280;45241;49.768;8.636;2023-05-16T08:06:22;100259.28;;;13.55;100.00
59435;BME280;45241;49.768;8.636;2023-05-16T08:08:48;100264.25;;;13.52;100.00
59435;BME280;45241;49.768;8.636;2023-05-16T08:11:14;100268.56;;;13.66;100.00
59435;BME280;45241;49.768;8.636;2023-05-16T08:13:40;100263.22;;;14.17;100.00
59435;BME280;45241;49.768;8.636;2023-05-16T08:16:05;100268.69;;;13.97;100.00
59435;BME280;45241;49.768;8.636;2023-05-16T08:18:30;100277.16;;;14.14;100.00
59435;BME280;45241;49.768;8.636;2023-05-16T08:20:56;100273.84;;;13.99;100.00
59435;BME280;45241;49.768;8.636;2023-05-16T08:23:21;100273.31;;;13.77;100.00
59435;BME280;45241;49.768;8.636;2023-05-16T08:25:46;100279.50;;;13.91;100.00
59435;BME280;45241;49.768;8.636;2023-05-16T08:28:12;100278.06;;;14.46;100.00
59435;BME280;45241;49.768;8.636;2023-05-16T08:30:37;100274.81;;;14.31;100.00
59435;BME280;45241;49.768;8.636;2023-05-16T08:33:02;100271.06;;;14.32;100.00
59435;BME280;45241;49.768;8.636;2023-05-16T08:35:29;100272.75;;;14.26;100.00
59435;BME280;45241;49.768;8.636;2023-05-16T08:37:55;100277.69;;;14.36;100.00
59435;BME280;45241;49.768;8.636;2023-05-16T08:40:24;100279.75;;;14.41;100.00
59435;BME280;45241;49.768;8.636;2023-05-16T08:42:50;100281.03;;;14.25;100.00
59435;BME280;45241;49.768;8.636;2023-05-16T08:45:16;100287.72;;;14.09;100.00
59435;BME280;45241;49.768;8.636;2023-05-16T08:47:41;100289.47;;;13.84;100.00
59435;BME280;45241;49.768;8.636;2023-05-16T08:50:08;100289.50;;;13.64;100.00
59435;BME280;45241;49.768;8.636;2023-05-16T08:52:37;100290.78;;;13.35;100.00
59435;BME280;45241;49.768;8.636;2023-05-16T08:55:03;100304.84;;;13.43;100.00
59435;BME280;45241;49.768;8.636;2023-05-16T08:57:36;100305.06;;;13.09;100.00
59435;BME280;45241;49.768;8.636;2023-05-16T09:00:02;100306.03;;;12.20;100.00
59435;BME280;45241;49.768;8.636;2023-05-16T09:02:31;100297.56;;;12.17;100.00
59435;BME280;45241;49.768;8.636;2023-05-16T09:04:57;100303.94;;;12.70;100.00
59435;BME280;45241;49.768;8.636;2023-05-16T09:07:23;100300.41;;;12.56;100.00
59435;BME280;45241;49.768;8.636;2023-05-16T09:09:49;100303.53;;;12.80;100.00
59435;BME280;45241;49.768;8.636;2023-05-16T09:12:14;100301.09;;;12.91;100.00
59435;BME280;45241;49.768;8.636;2023-05-16T09:14:40;100309.22;;;13.11;100.00
59435;BME280;45241;49.768;8.636;2023-05-16T09:17:07;100306.94;;;13.08;100.00
59435;BME280;45241;49.768;8.636;2023-05-16T09:19:40;100309.63;;;13.61;100.00
59435;BME280;45241;49.768;8.636;2023-05-16T09:22:12;100311.50;;;13.34;100.00
59435;BME280;45241;49.768;8.636;2023-05-16T09:24:42;100315.66;;;13.37;100.00
59435;BME280;45241;49.768;8.636;2023-05-16T09:27:12;100313.72;;;13.70;100.00
59435;BME280;45241;49.768;8.636;2023-05-16T09:29:42;100311.06;;;13.50;100.00
59435;BME280;45241;49.768;8.636;2023-05-16T09:32:12;100311.50;;;13.61;100.00
59435;BME280;45241;49.768;8.636;2023-05-16T09:34:46;100310.81;;;13.72;100.00
59435;BME280;45241;49.768;8.636;2023-05-16T09:37:16;100311.44;;;13.87;100.00
59435;BME280;45241;49.768;8.636;2023-05-16T09:39:52;100313.19;;;14.26;100.00
59435;BME280;45241;49.768;8.636;2023-05-16T09:42:20;100313.19;;;14.26;100.00
59435;BME280;45241;49.768;8.636;2023-05-16T09:44:48;100316.66;;;14.47;100.00
59435;BME280;45241;49.768;8.636;2023-05-16T09:47:14;100309.81;;;14.44;100.00
59435;BME280;45241;49.768;8.636;2023-05-16T09:49:43;100315.78;;;13.88;100.00
59435;BME280;45241;49.768;8.636;2023-05-16T09:52:09;100315.06;;;14.26;100.00
59435;BME280;45241;49.768;8.636;2023-05-16T09:54:35;100322.91;;;14.41;100.00
59435;BME280;45241;49.768;8.636;2023-05-16T09:57:00;100323.53;;;14.36;100.00
59435;BME280;45241;49.768;8.636;2023-05-16T09:59:30;100331.72;;;13.96;100.00
59435;BME280;45241;49.768;8.636;2023-05-16T10:01:58;100325.78;;;13.74;100.00
59435;BME280;45241;49.768;8.636;2023-05-16T10:04:24;100320.47;;;14.71;100.00
59435;BME280;45241;49.768;8.636;2023-05-16T10:06:50;100318.63;;;14.06;100.00
59435;BME280;45241;49.768;8.636;2023-05-16T10:09:18;100324.19;;;14.18;100.00
59435;BME280;45241;49.768;8.636;2023-05-16T10:11:45;100326.34;;;13.90;100.00
59435;BME280;45241;49.768;8.636;2023-05-16T10:14:12;100315.31;;;14.04;100.00
59435;BME280;45241;49.768;8.636;2023-05-16T10:16:42;100323.03;;;13.88;100.00
59435;BME280;45241;49.768;8.636;2023-05-16T10:19:08;100323.25;;;13.86;100.00
59435;BME280;45241;49.768;8.636;2023-05-16T10:21:36;100327.59;;;14.00;100.00
59435;BME280;45241;49.768;8.636;2023-05-16T10:24:05;100321.56;;;13.85;100.00
59435;BME280;45241;49.768;8.636;2023-05-16T10:26:32;100324.56;;;14.35;100.00
59435;BME280;45241;49.768;8.636;2023-05-16T10:28:59;100331.72;;;14.61;100.00
59435;BME280;45241;49.768;8.636;2023-05-16T10:31:26;100329.44;;;14.64;100.00
59435;BME280;45241;49.768;8.636;2023-05-16T10:33:53;100321.00;;;14.48;100.00
59435;BME280;45241;49.768;8.636;2023-05-16T10:36:18;100328.31;;;14.79;99.83
59435;BME280;45241;49.768;8.636;2023-05-16T10:38:45;100325.03;;;14.70;98.57
59435;BME280;45241;49.768;8.636;2023-05-16T10:41:11;100332.09;;;14.13;100.00
59435;BME280;45241;49.768;8.636;2023-05-16T10:43:37;100334.09;;;14.44;100.00
59435;BME280;45241;49.768;8.636;2023-05-16T10:46:07;100328.16;;;14.16;100.00
59435;BME280;45241;49.768;8.636;2023-05-16T10:48:35;100333.25;;;14.44;100.00
59435;BME280;45241;49.768;8.636;2023-05-16T10:51:02;100323.69;;;14.54;100.00
59435;BME280;45241;49.768;8.636;2023-05-16T10:58:24;100336.72;;;14.57;100.00
59435;BME280;45241;49.768;8.636;2023-05-16T11:01:23;100340.97;;;14.33;100.00
59435;BME280;45241;49.768;8.636;2023-05-16T11:09:16;100345.38;;;14.08;98.00
59435;BME280;45241;49.768;8.636;2023-05-16T11:12:02;100348.47;;;14.12;93.84
59435;BME280;45241;49.768;8.636;2023-05-16T11:19:46;100343.94;;;14.63;92.60
59435;BME280;45241;49.768;8.636;2023-05-16T11:25:00;100353.84;;;14.76;94.79
59435;BME280;45241;49.768;8.636;2023-05-16T11:27:31;100352.94;;;14.89;91.14
59435;BME280;45241;49.768;8.636;2023-05-16T11:30:19;100359.72;;;14.66;92.15
59435;BME280;45241;49.768;8.636;2023-05-16T11:32:46;100351.09;;;14.38;89.53
59435;BME280;45241;49.768;8.636;2023-05-16T11:35:14;100358.25;;;14.06;91.73
59435;BME280;45241;49.768;8.636;2023-05-16T11:37:40;100354.66;;;14.32;89.36
59435;BME280;45241;49.768;8.636;2023-05-16T11:40:06;100353.19;;;14.43;88.82
59435;BME280;45241;49.768;8.636;2023-05-16T11:42:42;100350.34;;;14.11;88.63
59435;BME280;45241;49.768;8.636;2023-05-16T11:45:09;100351.41;;;14.68;88.28
59435;BME280;45241;49.768;8.636;2023-05-16T11:47:38;100350.13;;;15.09;90.27
59435;BME280;45241;49.768;8.636;2023-05-16T11:50:11;100341.06;;;15.28;91.04
59435;BME280;45241;49.768;8.636;2023-05-16T11:52:37;100349.81;;;15.23;81.07
59435;BME280;45241;49.768;8.636;2023-05-16T11:55:04;100353.72;;;15.27;82.96
59435;BME280;45241;49.768;8.636;2023-05-16T11:57:32;100362.50;;;14.91;82.17
59435;BME280;45241;49.768;8.636;2023-05-16T12:00:02;100354.66;;;15.46;84.75
59435;BME280;45241;49.768;8.636;2023-05-16T12:02:28;100359.72;;;15.05;81.99
59435;BME280;45241;49.768;8.636;2023-05-16T12:04:54;100365.06;;;14.80;83.13
59435;BME280;45241;49.768;8.636;2023-05-16T12:07:20;100357.19;;;15.10;82.69
59435;BME280;45241;49.768;8.636;2023-05-16T12:09:51;100358.97;;;14.53;81.10
59435;BME280;45241;49.768;8.636;2023-05-16T12:12:19;100356.28;;;15.22;81.83
59435;BME280;45241;49.768;8.636;2023-05-16T12:14:45;100353.47;;;15.36;84.06
59435;BME280;45241;49.768;8.636;2023-05-16T12:17:11;100356.97;;;15.11;81.04
59435;BME280;45241;49.768;8.636;2023-05-16T12:19:36;100360.19;;;15.26;80.00
59435;BME280;45241;49.768;8.636;2023-05-16T12:22:01;100360.03;;;15.21;77.25
59435;BME280;45241;49.768;8.636;2023-05-16T12:24:30;100354.56;;;15.60;74.46
59435;BME280;45241;49.768;8.636;2023-05-16T12:26:56;100355.47;;;15.47;75.00
59435;BME280;45241;49.768;8.636;2023-05-16T12:29:21;100350.22;;;15.59;75.74
59435;BME280;45241;49.768;8.636;2023-05-16T12:31:52;100364.66;;;15.39;74.95
59435;BME280;45241;49.768;8.636;2023-05-16T12:34:18;100363.13;;;15.50;72.57
59435;BME280;45241;49.768;8.636;2023-05-16T12:36:49;100364.38;;;15.54;72.54
59435;BME280;45241;49.768;8.636;2023-05-16T12:39:15;100363.41;;;15.92;68.82
59435;BME280;45241;49.768;8.636;2023-05-16T12:41:42;100366.66;;;16.19;66.57
59435;BME280;45241;49.768;8.636;2023-05-16T12:44:11;100363.00;;;16.13;66.12
59435;BME280;45241;49.768;8.636;2023-05-16T12:46:45;100367.28;;;16.39;64.76
59435;BME280;45241;49.768;8.636;2023-05-16T12:49:12;100369.53;;;16.42;62.59
59435;BME280;45241;49.768;8.636;2023-05-16T12:51:38;100370.66;;;16.34;62.49
59435;BME280;45241;49.768;8.636;2023-05-16T12:54:10;100368.69;;;16.60;61.88
59435;BME280;45241;49.768;8.636;2023-05-16T12:56:37;100368.94;;;16.77;60.50
59435;BME280;45241;49.768;8.636;2023-05-16T12:59:03;100366.31;;;17.42;60.82
59435;BME280;45241;49.768;8.636;2023-05-16T13:01:28;100355.75;;;17.87;58.74
59435;BME280;45241;49.768;8.636;2023-05-16T13:03:53;100360.56;;;17.61;56.73
59435;BME280;45241;49.768;8.636;2023-05-16T13:06:19;100361.09;;;18.05;57.07
59435;BME280;45241;49.768;8.636;2023-05-16T13:08:44;100364.09;;;17.09;56.33
59435;BME280;45241;49.768;8.636;2023-05-16T13:11:10;100358.22;;;17.88;57.41